sensor_id;sensor_type;location;lat;lon;timestamp;pressure;altitude;pressure_sealevel;temperature;humidity
13593;BME280;6867;50.998;4.250;2023-06-14T00:00:33;101020.16;;;19.14;56.29
13593;BME280;6867;50.998;4.250;2023-06-14T00:03:01;101020.31;;;19.03;56.83
13593;BME280;6867;50.998;4.250;2023-06-14T00:05:29;101016.22;;;19.00;56.40
13593;BME280;6867;50.998;4.250;2023-06-14T00:07:57;101015.06;;;18.96;56.45
13593;BME280;6867;50.998;4.250;2023-06-14T00:10:27;101005.31;;;19.00;56.60
13593;BME280;6867;50.998;4.250;2023-06-14T00:12:56;101010.75;;;19.00;56.92
13593;BME280;6867;50.998;4.250;2023-06-14T00:15:23;101024.34;;;18.95;57.56
13593;BME280;6867;50.998;4.250;2023-06-14T00:17:49;101018.66;;;19.02;57.45
13593;BME280;6867;50.998;4.250;2023-06-14T00:20:16;101026.56;;;18.98;57.91
13593;BME280;6867;50.998;4.250;2023-06-14T00:22:42;101025.47;;;18.99;57.91
13593;BME280;6867;50.998;4.250;2023-06-14T00:25:10;101016.47;;;18.99;57.92
13593;BME280;6867;50.998;4.250;2023-06-14T00:27:38;100997.16;;;19.00;57.10
13593;BME280;6867;50.998;4.250;2023-06-14T00:30:06;101009.63;;;18.96;57.43
13593;BME280;6867;50.998;4.250;2023-06-14T00:32:33;101028.91;;;18.89;58.06
13593;BME280;6867;50.998;4.250;2023-06-14T00:35:00;101040.19;;;18.76;58.89
13593;BME280;6867;50.998;4.250;2023-06-14T00:37:26;101033.88;;;18.71;58.82
13593;BME280;6867;50.998;4.250;2023-06-14T00:39:53;101012.03;;;18.65;58.38
13593;BME280;6867;50.998;4.250;2023-06-14T00:42:23;101009.25;;;18.60;58.16
13593;BME280;6867;50.998;4.250;2023-06-14T00:44:52;101011.06;;;18.55;58.43
13593;BME280;6867;50.998;4.250;2023-06-14T00:47:19;101006.97;;;18.52;58.15
13593;BME280;6867;50.998;4.250;2023-06-14T00:49:46;101013.19;;;18.48;58.15
13593;BME280;6867;50.998;4.250;2023-06-14T00:52:14;101028.44;;;18.49;58.80
13593;BME280;6867;50.998;4.250;2023-06-14T00:54:42;101017.78;;;18.47;58.15
13593;BME280;6867;50.998;4.250;2023-06-14T00:57:08;101017.78;;;18.47;58.61
13593;BME280;6867;50.998;4.250;2023-06-14T00:59:40;101028.09;;;18.45;59.34
13593;BME280;6867;50.998;4.250;2023-06-14T01:02:09;101040.19;;;18.32;59.47
13593;BME280;6867;50.998;4.250;2023-06-14T01:04:37;101034.91;;;18.26;59.29
13593;BME280;6867;50.998;4.250;2023-06-14T01:07:11;101039.00;;;18.23;59.36
13593;BME280;6867;50.998;4.250;2023-06-14T01:09:48;101010.50;;;18.31;58.40
13593;BME280;6867;50.998;4.250;2023-06-14T01:12:24;101016.47;;;18.28;59.03
13593;BME280;6867;50.998;4.250;2023-06-14T01:14:57;101043.19;;;18.14;59.76
13593;BME280;6867;50.998;4.250;2023-06-14T01:17:25;101036.69;;;18.15;59.79
13593;BME280;6867;50.998;4.250;2023-06-14T01:19:53;101018.03;;;18.02;59.24
13593;BME280;6867;50.998;4.250;2023-06-14T01:22:24;101012.44;;;17.91;59.13
13593;BME280;6867;50.998;4.250;2023-06-14T01:24:53;101018.47;;;17.94;59.16
13593;BME280;6867;50.998;4.250;2023-06-14T01:27:22;101028.09;;;17.84;59.71
13593;BME280;6867;50.998;4.250;2023-06-14T01:29:50;101031.84;;;17.78;59.91
13593;BME280;6867;50.998;4.250;2023-06-14T01:32:23;101034.44;;;17.73;60.20
13593;BME280;6867;50.998;4.250;2023-06-14T01:34:51;101042.50;;;17.68;60.64
13593;BME280;6867;50.998;4.250;2023-06-14T01:37:18;101038.41;;;17.65;60.66
13593;BME280;6867;50.998;4.250;2023-06-14T01:39:47;101038.88;;;17.62;60.70
13593;BME280;6867;50.998;4.250;2023-06-14T01:42:16;101044.72;;;17.54;60.91
13593;BME280;6867;50.998;4.250;2023-06-14T01:44:44;101038.22;;;17.55;60.67
13593;BME280;6867;50.998;4.250;2023-06-14T01:47:12;101048.53;;;17.53;60.97
13593;BME280;6867;50.998;4.250;2023-06-14T01:49:38;101052.53;;;17.51;61.05
13593;BME280;6867;50.998;4.250;2023-06-14T01:52:33;101063.34;;;17.46;61.80
13593;BME280;6867;50.998;4.250;2023-06-14T01:55:22;101050.34;;;17.48;61.77
13593;BME280;6867;50.998;4.250;2023-06-14T01:57:51;101034.75;;;17.43;61.40
13593;BME280;6867;50.998;4.250;2023-06-14T02:00:46;101030.59;;;17.35;61.18
13593;BME280;6867;50.998;4.250;2023-06-14T02:06:53;101057.47;;;17.20;62.25
13593;BME280;6867;50.998;4.250;2023-06-14T02:09:33;101064.72;;;17.14;62.83
13593;BME280;6867;50.998;4.250;2023-06-14T02:19:16;101068.78;;;17.00;63.51
13593;BME280;6867;50.998;4.250;2023-06-14T02:22:17;101058.16;;;16.99;63.02
13593;BME280;6867;50.998;4.250;2023-06-14T02:24:45;101059.03;;;16.87;63.42
13593;BME280;6867;50.998;4.250;2023-06-14T02:27:12;101072.59;;;16.87;63.86
13593;BME280;6867;50.998;4.250;2023-06-14T02:29:39;101066.34;;;16.87;64.27
13593;BME280;6867;50.998;4.250;2023-06-14T02:32:06;101068.00;;;16.88;64.10
13593;BME280;6867;50.998;4.250;2023-06-14T02:34:35;101059.03;;;16.87;64.17
13593;BME280;6867;50.998;4.250;2023-06-14T02:37:01;101058.81;;;16.89;63.96
13593;BME280;6867;50.998;4.250;2023-06-14T02:39:29;101050.41;;;16.90;63.74
13593;BME280;6867;50.998;4.250;2023-06-14T02:41:55;101059.28;;;16.86;64.01
13593;BME280;6867;50.998;4.250;2023-06-14T02:44:24;101063.16;;;16.90;63.99
13593;BME280;6867;50.998;4.250;2023-06-14T02:46:52;101057.41;;;16.86;63.88
13593;BME280;6867;50.998;4.250;2023-06-14T02:49:18;101071.09;;;16.80;64.54
13593;BME280;6867;50.998;4.250;2023-06-14T02:51:46;101068.88;;;16.77;64.87
13593;BME280;6867;50.998;4.250;2023-06-14T02:54:13;101068.06;;;16.76;65.11
13593;BME280;6867;50.998;4.250;2023-06-14T02:56:40;101061.09;;;16.68;64.81
13593;BME280;6867;50.998;4.250;2023-06-14T02:59:07;101058.13;;;16.70;64.80
13593;BME280;6867;50.998;4.250;2023-06-14T03:01:34;101058.50;;;16.62;65.05
13593;BME280;6867;50.998;4.250;2023-06-14T03:04:06;101058.84;;;16.65;65.05
13593;BME280;6867;50.998;4.250;2023-06-14T03:06:33;101049.81;;;16.60;64.84
13593;BME280;6867;50.998;4.250;2023-06-14T03:09:01;101036.13;;;16.55;64.01
13593;BME280;6867;50.998;4.250;2023-06-14T03:11:29;101036.63;;;16.52;64.07
13593;BME280;6867;50.998;4.250;2023-06-14T03:13:56;101046.06;;;16.49;64.38
13593;BME280;6867;50.998;4.250;2023-06-14T03:16:23;101058.69;;;16.43;64.61
13593;BME280;6867;50.998;4.250;2023-06-14T03:18:51;101061.41;;;16.43;64.32
13593;BME280;6867;50.998;4.250;2023-06-14T03:21:18;101053.75;;;16.40;64.48
13593;BME280;6867;50.998;4.250;2023-06-14T03:23:45;101046.44;;;16.41;63.82
13593;BME280;6867;50.998;4.250;2023-06-14T03:26:13;101046.88;;;16.50;63.59
13593;BME280;6867;50.998;4.250;2023-06-14T03:28:43;101039.34;;;16.52;63.21
13593;BME280;6867;50.998;4.250;2023-06-14T03:31:09;101039.91;;;16.54;63.26
13593;BME280;6867;50.998;4.250;2023-06-14T03:33:36;101053.13;;;16.50;63.24
13593;BME280;6867;50.998;4.250;2023-06-14T03:36:03;101064.78;;;16.51;63.51
13593;BME280;6867;50.998;4.250;2023-06-14T03:38:30;101053.72;;;16.52;63.46
13593;BME280;6867;50.998;4.250;2023-06-14T03:40:57;101056.44;;;16.52;63.56
13593;BME280;6867;50.998;4.250;2023-06-14T03:43:25;101056.44;;;16.52;63.32
13593;BME280;6867;50.998;4.250;2023-06-14T03:45:51;101061.69;;;16.59;63.21
13593;BME280;6867;50.998;4.250;2023-06-14T03:48:18;101051.44;;;16.61;62.95
13593;BME280;6867;50.998;4.250;2023-06-14T03:50:45;101052.34;;;16.66;62.98
13593;BME280;6867;50.998;4.250;2023-06-14T03:53:12;101060.59;;;16.72;63.09
13593;BME280;6867;50.998;4.250;2023-06-14T03:55:39;101072.97;;;16.79;63.73
13593;BME280;6867;50.998;4.250;2023-06-14T03:58:06;101087.72;;;16.83;63.80
13593;BME280;6867;50.998;4.250;2023-06-14T04:00:34;101094.31;;;16.87;64.25
13593;BME280;6867;50.998;4.250;2023-06-14T04:03:01;101088.97;;;16.92;63.90
13593;BME280;6867;50.998;4.250;2023-06-14T04:05:28;101099.34;;;16.96;64.07
13593;BME280;6867;50.998;4.250;2023-06-14T04:07:55;101096.41;;;16.97;64.13
13593;BME280;6867;50.998;4.250;2023-06-14T04:10:22;101094.00;;;17.01;63.99
13593;BME280;6867;50.998;4.250;2023-06-14T04:12:49;101097.88;;;17.05;63.89
13593;BME280;6867;50.998;4.250;2023-06-14T04:15:17;101099.66;;;17.11;63.95
13593;BME280;6867;50.998;4.250;2023-06-14T04:17:45;101100.09;;;17.20;63.71
13593;BME280;6867;50.998;4.250;2023-06-14T04:20:11;101103.38;;;17.22;63.54
13593;BME280;6867;50.998;4.250;2023-06-14T04:22:38;101094.81;;;17.30;63.24
13593;BME280;6867;50.998;4.250;2023-06-14T04:25:07;101084.63;;;17.37;62.85
13593;BME280;6867;50.998;4.250;2023-06-14T04:27:34;101069.03;;;17.44;62.27
13593;BME280;6867;50.998;4.250;2023-06-14T04:30:02;101053.38;;;17.51;61.83
13593;BME280;6867;50.998;4.250;2023-06-14T04:32:29;101063.59;;;17.61;61.68
13593;BME280;6867;50.998;4.250;2023-06-14T04:35:00;101057.84;;;17.74;61.16
13593;BME280;6867;50.998;4.250;2023-06-14T04:37:29;101049.84;;;17.84;60.94
13593;BME280;6867;50.998;4.250;2023-06-14T04:39:56;101053.06;;;17.98;60.37
13593;BME280;6867;50.998;4.250;2023-06-14T04:42:23;101065.97;;;18.08;60.57
13593;BME280;6867;50.998;4.250;2023-06-14T04:44:55;101057.69;;;18.20;60.00
13593;BME280;6867;50.998;4.250;2023-06-14T04:47:22;101055.69;;;18.32;59.62
13593;BME280;6867;50.998;4.250;2023-06-14T04:49:50;101048.41;;;18.37;59.29
13593;BME280;6867;50.998;4.250;2023-06-14T04:52:20;101049.88;;;18.45;59.09
13593;BME280;6867;50.998;4.250;2023-06-14T04:54:47;101041.25;;;18.53;58.65
13593;BME280;6867;50.998;4.250;2023-06-14T04:57:14;101039.22;;;18.65;58.31
13593;BME280;6867;50.998;4.250;2023-06-14T04:59:42;101040.75;;;18.78;58.03
13593;BME280;6867;50.998;4.250;2023-06-14T05:02:09;101014.25;;;18.96;57.01
13593;BME280;6867;50.998;4.250;2023-06-14T05:04:37;100981.44;;;19.07;55.83
13593;BME280;6867;50.998;4.250;2023-06-14T05:07:06;100957.88;;;19.23;54.53
13593;BME280;6867;50.998;4.250;2023-06-14T05:09:35;100954.72;;;19.41;53.92
13593;BME280;6867;50.998;4.250;2023-06-14T05:12:03;100948.03;;;19.59;53.33
13593;BME280;6867;50.998;4.250;2023-06-14T05:14:30;100965.81;;;19.67;53.28
13593;BME280;6867;50.998;4.250;2023-06-14T05:16:56;100969.19;;;19.84;53.44
13593;BME280;6867;50.998;4.250;2023-06-14T05:19:23;100969.19;;;19.84;53.40
13593;BME280;6867;50.998;4.250;2023-06-14T05:21:50;100938.78;;;20.08;52.22
13593;BME280;6867;50.998;4.250;2023-06-14T05:24:17;100951.91;;;20.16;51.90
13593;BME280;6867;50.998;4.250;2023-06-14T05:26:46;100954.13;;;20.34;51.61
13593;BME280;6867;50.998;4.250;2023-06-14T05:29:14;100953.09;;;20.46;51.47
13593;BME280;6867;50.998;4.250;2023-06-14T05:31:40;100951.50;;;20.50;51.10
13593;BME280;6867;50.998;4.250;2023-06-14T05:34:07;100965.09;;;20.45;51.40
13593;BME280;6867;50.998;4.250;2023-06-14T05:36:35;100950.44;;;20.71;50.84
13593;BME280;6867;50.998;4.250;2023-06-14T05:39:02;100934.63;;;20.78;50.10
13593;BME280;6867;50.998;4.250;2023-06-14T05:41:29;100932.97;;;20.93;49.65
13593;BME280;6867;50.998;4.250;2023-06-14T05:43:58;100915.22;;;21.00;49.19
13593;BME280;6867;50.998;4.250;2023-06-14T05:46:25;100913.84;;;20.98;48.68
13593;BME280;6867;50.998;4.250;2023-06-14T05:48:52;100929.97;;;21.14;49.03
13593;BME280;6867;50.998;4.250;2023-06-14T05:51:19;100905.38;;;21.30;48.07
13593;BME280;6867;50.998;4.250;2023-06-14T05:53:46;100900.72;;;21.51;48.11
13593;BME280;6867;50.998;4.250;2023-06-14T05:56:13;100917.38;;;21.54;48.34
13593;BME280;6867;50.998;4.250;2023-06-14T05:58:39;100896.03;;;21.56;47.78
13593;BME280;6867;50.998;4.250;2023-06-14T06:01:07;100899.84;;;21.60;47.29
13593;BME280;6867;50.998;4.250;2023-06-14T06:03:34;100890.78;;;21.75;46.71
13593;BME280;6867;50.998;4.250;2023-06-14T06:06:01;100878.25;;;21.64;46.54
13593;BME280;6867;50.998;4.250;2023-06-14T06:08:28;100864.56;;;21.74;45.89
13593;BME280;6867;50.998;4.250;2023-06-14T06:10:55;100896.44;;;21.99;46.21
13593;BME280;6867;50.998;4.250;2023-06-14T06:13:22;100912.53;;;22.06;46.42
13593;BME280;6867;50.998;4.250;2023-06-14T06:15:49;100910.34;;;22.13;46.20
13593;BME280;6867;50.998;4.250;2023-06-14T06:18:17;100883.75;;;22.19;45.32
13593;BME280;6867;50.998;4.250;2023-06-14T06:20:44;100870.31;;;22.27;44.90
13593;BME280;6867;50.998;4.250;2023-06-14T06:23:12;100865.25;;;22.50;44.45
13593;BME280;6867;50.998;4.250;2023-06-14T06:25:39;100853.50;;;22.44;44.02
13593;BME280;6867;50.998;4.250;2023-06-14T06:28:06;100894.06;;;22.76;44.24
13593;BME280;6867;50.998;4.250;2023-06-14T06:30:33;100903.28;;;22.85;44.53
13593;BME280;6867;50.998;4.250;2023-06-14T06:33:01;100875.91;;;22.85;44.05
13593;BME280;6867;50.998;4.250;2023-06-14T06:35:30;100875.22;;;23.04;43.65
13593;BME280;6867;50.998;4.250;2023-06-14T06:37:58;100909.38;;;23.11;44.01
13593;BME280;6867;50.998;4.250;2023-06-14T06:40:25;100897.94;;;23.33;43.95
13593;BME280;6867;50.998;4.250;2023-06-14T06:42:51;100875.81;;;23.54;42.71
13593;BME280;6867;50.998;4.250;2023-06-14T06:45:18;100905.16;;;23.77;43.24
13593;BME280;6867;50.998;4.250;2023-06-14T06:47:45;100882.47;;;23.72;42.88
13593;BME280;6867;50.998;4.250;2023-06-14T06:50:12;100888.19;;;23.75;42.34
13593;BME280;6867;50.998;4.250;2023-06-14T06:52:40;100891.03;;;23.89;42.47
13593;BME280;6867;50.998;4.250;2023-06-14T06:55:07;100926.94;;;23.93;43.17
13593;BME280;6867;50.998;4.250;2023-06-14T06:57:34;100920.13;;;24.09;42.84
13593;BME280;6867;50.998;4.250;2023-06-14T07:00:00;100912.72;;;24.28;42.28
13593;BME280;6867;50.998;4.250;2023-06-14T07:02:27;100890.97;;;24.32;41.80
13593;BME280;6867;50.998;4.250;2023-06-14T07:04:56;100918.03;;;24.44;42.30
13593;BME280;6867;50.998;4.250;2023-06-14T07:07:22;100939.25;;;24.57;42.11
13593;BME280;6867;50.998;4.250;2023-06-14T07:09:50;100921.50;;;24.68;41.67
13593;BME280;6867;50.998;4.250;2023-06-14T07:12:17;100913.41;;;24.77;41.22
13593;BME280;6867;50.998;4.250;2023-06-14T07:14:44;100934.25;;;24.97;41.73
13593;BME280;6867;50.998;4.250;2023-06-14T07:17:11;100913.56;;;24.99;41.10
13593;BME280;6867;50.998;4.250;2023-06-14T07:19:38;100888.00;;;25.18;39.83
13593;BME280;6867;50.998;4.250;2023-06-14T07:22:04;100894.75;;;25.25;39.55
13593;BME280;6867;50.998;4.250;2023-06-14T07:24:31;100925.22;;;25.43;40.00
13593;BME280;6867;50.998;4.250;2023-06-14T07:26:59;100920.06;;;25.82;39.56
13593;BME280;6867;50.998;4.250;2023-06-14T07:29:26;100908.50;;;26.58;38.31
13593;BME280;6867;50.998;4.250;2023-06-14T07:31:53;100916.91;;;27.20;37.65
13593;BME280;6867;50.998;4.250;2023-06-14T07:34:20;100880.13;;;27.65;36.19
13593;BME280;6867;50.998;4.250;2023-06-14T07:36:47;100886.75;;;28.21;35.47
13593;BME280;6867;50.998;4.250;2023-06-14T07:39:13;100876.00;;;28.89;34.11
13593;BME280;6867;50.998;4.250;2023-06-14T07:41:40;100828.59;;;28.61;33.43
13593;BME280;6867;50.998;4.250;2023-06-14T07:44:08;100854.88;;;29.40;32.48
13593;BME280;6867;50.998;4.250;2023-06-14T07:46:35;100846.19;;;29.50;31.95
13593;BME280;6867;50.998;4.250;2023-06-14T07:49:02;100844.16;;;29.97;31.73
13593;BME280;6867;50.998;4.250;2023-06-14T07:51:29;100853.66;;;30.09;31.54
13593;BME280;6867;50.998;4.250;2023-06-14T07:53:56;100887.91;;;30.67;31.10
13593;BME280;6867;50.998;4.250;2023-06-14T07:56:22;100865.66;;;31.09;30.44
13593;BME280;6867;50.998;4.250;2023-06-14T07:58:49;100858.75;;;31.27;29.65
13593;BME280;6867;50.998;4.250;2023-06-14T08:01:17;100857.66;;;30.95;29.55
13593;BME280;6867;50.998;4.250;2023-06-14T08:03:45;100876.97;;;30.70;30.37
13593;BME280;6867;50.998;4.250;2023-06-14T08:06:12;100893.78;;;31.19;30.41
13593;BME280;6867;50.998;4.250;2023-06-14T08:08:38;100889.03;;;31.20;29.87
13593;BME280;6867;50.998;4.250;2023-06-14T08:11:05;100896.69;;;31.47;30.06
13593;BME280;6867;50.998;4.250;2023-06-14T08:13:32;100872.19;;;31.74;29.29
13593;BME280;6867;50.998;4.250;2023-06-14T08:15:58;100830.06;;;31.60;28.12
13593;BME280;6867;50.998;4.250;2023-06-14T08:18:27;100883.75;;;31.76;29.09
13593;BME280;6867;50.998;4.250;2023-06-14T08:20:55;100851.84;;;31.70;28.09
13593;BME280;6867;50.998;4.250;2023-06-14T08:23:22;100855.50;;;32.11;27.82
13593;BME280;6867;50.998;4.250;2023-06-14T08:25:49;100883.31;;;31.86;28.41
13593;BME280;6867;50.998;4.250;2023-06-14T08:28:16;100890.81;;;31.61;28.91
13593;BME280;6867;50.998;4.250;2023-06-14T08:30:42;100930.16;;;32.12;29.28
13593;BME280;6867;50.998;4.250;2023-06-14T08:33:09;100908.06;;;31.91;29.09
13593;BME280;6867;50.998;4.250;2023-06-14T08:35:37;100871.31;;;32.22;27.77
13593;BME280;6867;50.998;4.250;2023-06-14T08:38:05;100830.38;;;32.07;26.92
13593;BME280;6867;50.998;4.250;2023-06-14T08:40:36;100869.97;;;31.67;28.08
13593;BME280;6867;50.998;4.250;2023-06-14T08:43:03;100888.72;;;31.70;28.46
13593;BME280;6867;50.998;4.250;2023-06-14T08:45:30;100918.50;;;32.47;28.12
13593;BME280;6867;50.998;4.250;2023-06-14T08:47:57;100914.34;;;32.53;28.26
13593;BME280;6867;50.998;4.250;2023-06-14T08:50:25;100882.66;;;32.17;27.45
13593;BME280;6867;50.998;4.250;2023-06-14T08:52:59;100903.28;;;32.16;28.01
13593;BME280;6867;50.998;4.250;2023-06-14T08:55:28;100923.38;;;32.50;28.33
13593;BME280;6867;50.998;4.250;2023-06-14T08:57:56;100905.78;;;32.46;28.01
13593;BME280;6867;50.998;4.250;2023-06-14T09:00:24;100927.38;;;32.65;27.93
13593;BME280;6867;50.998;4.250;2023-06-14T09:02:51;100924.72;;;32.96;27.56
13593;BME280;6867;50.998;4.250;2023-06-14T09:05:23;100944.28;;;32.07;29.39
13593;BME280;6867;50.998;4.250;2023-06-14T09:07:50;100927.91;;;32.42;28.14
13593;BME280;6867;50.998;4.250;2023-06-14T09:10:20;100912.69;;;31.99;28.18
13593;BME280;6867;50.998;4.250;2023-06-14T09:12:47;100905.75;;;31.69;28.51
13593;BME280;6867;50.998;4.250;2023-06-14T09:15:14;100914.16;;;31.60;28.61
13593;BME280;6867;50.998;4.250;2023-06-14T09:17:42;100913.47;;;31.75;28.32
13593;BME280;6867;50.998;4.250;2023-06-14T09:20:09;100912.13;;;31.12;29.24
13593;BME280;6867;50.998;4.250;2023-06-14T09:22:39;100949.69;;;31.55;29.25
13593;BME280;6867;50.998;4.250;2023-06-14T09:25:07;100919.84;;;31.64;28.11
13593;BME280;6867;50.998;4.250;2023-06-14T09:27:35;100920.06;;;31.01;28.96
13593;BME280;6867;50.998;4.250;2023-06-14T09:30:08;100968.91;;;30.93;30.21
13593;BME280;6867;50.998;4.250;2023-06-14T09:32:36;100998.31;;;31.28;30.49
13593;BME280;6867;50.998;4.250;2023-06-14T09:35:04;100989.56;;;31.38;30.05
13593;BME280;6867;50.998;4.250;2023-06-14T09:37:33;100953.06;;;31.72;28.79
13593;BME280;6867;50.998;4.250;2023-06-14T09:40:00;100935.66;;;30.72;29.10
13593;BME280;6867;50.998;4.250;2023-06-14T09:42:26;100954.91;;;30.78;29.83
13593;BME280;6867;50.998;4.250;2023-06-14T09:44:56;100947.16;;;30.41;29.80
13593;BME280;6867;50.998;4.250;2023-06-14T09:47:24;100963.94;;;29.86;30.60
13593;BME280;6867;50.998;4.250;2023-06-14T09:49:51;100980.16;;;29.58;31.20
13593;BME280;6867;50.998;4.250;2023-06-14T09:52:21;100962.84;;;29.78;30.32
13593;BME280;6867;50.998;4.250;2023-06-14T09:54:49;100974.09;;;29.00;31.50
13593;BME280;6867;50.998;4.250;2023-06-14T09:57:20;100991.16;;;29.19;31.44
13593;BME280;6867;50.998;4.250;2023-06-14T09:59:47;101019.28;;;29.39;32.40
13593;BME280;6867;50.998;4.250;2023-06-14T10:02:25;100979.38;;;29.40;31.66
13593;BME280;6867;50.998;4.250;2023-06-14T10:04:57;100978.63;;;29.13;31.48
13593;BME280;6867;50.998;4.250;2023-06-14T10:07:26;100981.50;;;29.34;31.54
13593;BME280;6867;50.998;4.250;2023-06-14T10:09:55;100983.28;;;29.56;31.24
13593;BME280;6867;50.998;4.250;2023-06-14T10:12:22;100976.25;;;29.59;31.24
13593;BME280;6867;50.998;4.250;2023-06-14T10:14:50;100955.06;;;29.54;30.38
13593;BME280;6867;50.998;4.250;2023-06-14T10:17:26;100997.66;;;29.79;30.88
13593;BME280;6867;50.998;4.250;2023-06-14T10:20:06;101010.72;;;29.78;31.28
13593;BME280;6867;50.998;4.250;2023-06-14T10:22:42;100911.59;;;29.63;29.00
13593;BME280;6867;50.998;4.250;2023-06-14T10:25:13;100957.72;;;29.89;29.59
13593;BME280;6867;50.998;4.250;2023-06-14T10:27:44;100946.06;;;29.74;29.69
13593;BME280;6867;50.998;4.250;2023-06-14T10:30:14;100889.50;;;29.46;28.42
13593;BME280;6867;50.998;4.250;2023-06-14T10:33:07;100915.06;;;29.60;28.83
13593;BME280;6867;50.998;4.250;2023-06-14T10:35:35;100920.97;;;29.80;29.18
13593;BME280;6867;50.998;4.250;2023-06-14T10:38:08;100883.16;;;29.84;28.54
13593;BME280;6867;50.998;4.250;2023-06-14T10:40:36;100870.06;;;29.63;28.25
13593;BME280;6867;50.998;4.250;2023-06-14T10:43:21;100875.94;;;29.23;28.25
13593;BME280;6867;50.998;4.250;2023-06-14T10:46:16;100923.25;;;29.39;29.18
13593;BME280;6867;50.998;4.250;2023-06-14T10:48:44;100871.91;;;29.50;27.98
13593;BME280;6867;50.998;4.250;2023-06-14T10:51:20;100908.28;;;29.78;28.50
13593;BME280;6867;50.998;4.250;2023-06-14T10:53:47;100940.63;;;29.87;29.29
13593;BME280;6867;50.998;4.250;2023-06-14T10:56:26;100901.47;;;29.97;28.24
13593;BME280;6867;50.998;4.250;2023-06-14T10:58:53;100912.75;;;29.92;28.54
13593;BME280;6867;50.998;4.250;2023-06-14T11:01:35;100895.81;;;29.93;27.93
13593;BME280;6867;50.998;4.250;2023-06-14T11:04:11;100936.28;;;30.15;29.01
13593;BME280;6867;50.998;4.250;2023-06-14T11:06:46;100884.41;;;29.95;27.66
13593;BME280;6867;50.998;4.250;2023-06-14T11:09:38;100871.97;;;30.01;27.80
13593;BME280;6867;50.998;4.250;2023-06-14T11:12:10;100878.50;;;29.96;27.87
13593;BME280;6867;50.998;4.250;2023-06-14T11:14:37;100893.63;;;30.29;27.16
13593;BME280;6867;50.998;4.250;2023-06-14T11:17:05;100875.22;;;30.03;26.95
13593;BME280;6867;50.998;4.250;2023-06-14T11:19:33;100881.41;;;30.00;27.44
13593;BME280;6867;50.998;4.250;2023-06-14T11:21:59;100898.66;;;30.35;27.33
13593;BME280;6867;50.998;4.250;2023-06-14T11:24:26;100907.41;;;30.79;27.09
13593;BME280;6867;50.998;4.250;2023-06-14T11:26:53;100930.88;;;30.82;28.10
13593;BME280;6867;50.998;4.250;2023-06-14T11:29:21;100866.53;;;30.88;26.37
13593;BME280;6867;50.998;4.250;2023-06-14T11:31:48;100863.81;;;30.25;26.87
13593;BME280;6867;50.998;4.250;2023-06-14T11:34:15;100822.97;;;29.93;26.04
13593;BME280;6867;50.998;4.250;2023-06-14T11:36:43;100826.13;;;30.33;25.54
13593;BME280;6867;50.998;4.250;2023-06-14T11:39:11;100836.13;;;30.59;25.83
13593;BME280;6867;50.998;4.250;2023-06-14T11:41:40;100857.78;;;30.65;26.46
13593;BME280;6867;50.998;4.250;2023-06-14T11:44:07;100875.09;;;30.41;27.22
13593;BME280;6867;50.998;4.250;2023-06-14T11:46:35;100875.66;;;30.89;26.66
13593;BME280;6867;50.998;4.250;2023-06-14T11:49:02;100879.28;;;31.14;26.29
13593;BME280;6867;50.998;4.250;2023-06-14T11:51:30;100857.56;;;31.04;25.95
13593;BME280;6867;50.998;4.250;2023-06-14T11:53:58;100854.44;;;31.05;25.75
13593;BME280;6867;50.998;4.250;2023-06-14T11:56:25;100849.53;;;30.78;25.90
13593;BME280;6867;50.998;4.250;2023-06-14T11:58:53;100857.13;;;30.81;26.16
13593;BME280;6867;50.998;4.250;2023-06-14T12:01:22;100808.19;;;30.64;25.21
13593;BME280;6867;50.998;4.250;2023-06-14T12:03:49;100818.88;;;30.41;25.70
13593;BME280;6867;50.998;4.250;2023-06-14T12:06:16;100872.53;;;30.57;26.68
13593;BME280;6867;50.998;4.250;2023-06-14T12:08:55;100891.31;;;30.72;27.07
13593;BME280;6867;50.998;4.250;2023-06-14T12:11:23;100895.63;;;31.28;26.40
13593;BME280;6867;50.998;4.250;2023-06-14T12:13:50;100832.81;;;30.98;25.42
13593;BME280;6867;50.998;4.250;2023-06-14T12:16:17;100837.69;;;30.68;25.58
13593;BME280;6867;50.998;4.250;2023-06-14T12:18:43;100818.28;;;30.68;25.37
13593;BME280;6867;50.998;4.250;2023-06-14T12:21:11;100827.88;;;30.71;25.26
13593;BME280;6867;50.998;4.250;2023-06-14T12:23:45;100828.72;;;30.50;25.32
13593;BME280;6867;50.998;4.250;2023-06-14T12:26:16;100855.59;;;31.04;25.32
13593;BME280;6867;50.998;4.250;2023-06-14T12:28:44;100914.66;;;31.50;26.39
13593;BME280;6867;50.998;4.250;2023-06-14T12:31:12;100835.63;;;31.47;24.62
13593;BME280;6867;50.998;4.250;2023-06-14T12:33:39;100909.78;;;31.71;26.14
13593;BME280;6867;50.998;4.250;2023-06-14T12:36:07;100888.25;;;31.81;25.38
13593;BME280;6867;50.998;4.250;2023-06-14T12:38:35;100857.38;;;31.58;25.36
13593;BME280;6867;50.998;4.250;2023-06-14T12:41:02;100845.00;;;31.31;25.28
13593;BME280;6867;50.998;4.250;2023-06-14T12:43:29;100877.75;;;31.49;25.51
13593;BME280;6867;50.998;4.250;2023-06-14T12:45:57;100896.72;;;31.72;25.62
13593;BME280;6867;50.998;4.250;2023-06-14T12:48:24;100878.44;;;31.71;25.43
13593;BME280;6867;50.998;4.250;2023-06-14T12:50:52;100834.13;;;31.38;24.67
13593;BME280;6867;50.998;4.250;2023-06-14T12:53:19;100863.94;;;31.16;25.52
13593;BME280;6867;50.998;4.250;2023-06-14T12:55:46;100856.53;;;31.08;25.64
13593;BME280;6867;50.998;4.250;2023-06-14T12:58:13;100910.47;;;31.32;26.43
13593;BME280;6867;50.998;4.250;2023-06-14T13:00:42;100900.44;;;31.06;26.62
13593;BME280;6867;50.998;4.250;2023-06-14T13:03:10;100866.06;;;31.44;25.50
13593;BME280;6867;50.998;4.250;2023-06-14T13:05:37;100858.22;;;31.00;25.59
13593;BME280;6867;50.998;4.250;2023-06-14T13:08:06;100835.03;;;31.17;24.90
13593;BME280;6867;50.998;4.250;2023-06-14T13:10:35;100827.91;;;31.41;24.34
13593;BME280;6867;50.998;4.250;2023-06-14T13:13:01;100879.47;;;31.42;25.55
13593;BME280;6867;50.998;4.250;2023-06-14T13:15:29;100866.41;;;31.79;25.01
13593;BME280;6867;50.998;4.250;2023-06-14T13:17:55;100855.41;;;31.95;24.25